sensor_id;sensor_type;location;lat;lon;timestamp;P1;durP1;ratioP1;P2;durP2;ratioP2
81523;SDS011;70954;49.500;10.416;2024-01-30T00:01:43;4.72;;;2.92;;
81523;SDS011;70954;49.500;10.416;2024-01-30T00:04:09;3.72;;;2.97;;
81523;SDS011;70954;49.500;10.416;2024-01-30T00:06:34;4.00;;;3.08;;
81523;SDS011;70954;49.500;10.416;2024-01-30T00:09:00;4.03;;;2.72;;
81523;SDS011;70954;49.500;10.416;2024-01-30T00:11:25;5.63;;;3.50;;
81523;SDS011;70954;49.500;10.416;2024-01-30T00:13:51;5.30;;;3.50;;
81523;SDS011;70954;49.500;10.416;2024-01-30T00:16:23;5.20;;;3.25;;
81523;SDS011;70954;49.500;10.416;2024-01-30T00:18:52;4.82;;;3.03;;
81523;SDS011;70954;49.500;10.416;2024-01-30T00:21:18;4.47;;;2.75;;
81523;SDS011;70954;49.500;10.416;2024-01-30T00:23:45;4.68;;;2.97;;
81523;SDS011;70954;49.500;10.416;2024-01-30T00:26:10;3.38;;;2.72;;
81523;SDS011;70954;49.500;10.416;2024-01-30T00:28:37;3.60;;;2.85;;
81523;SDS011;70954;49.500;10.416;2024-01-30T00:31:03;3.53;;;2.83;;
81523;SDS011;70954;49.500;10.416;2024-01-30T00:33:28;5.03;;;2.92;;
81523;SDS011;70954;49.500;10.416;2024-01-30T00:35:54;5.53;;;2.78;;
81523;SDS011;70954;49.500;10.416;2024-01-30T00:38:19;4.97;;;3.17;;
81523;SDS011;70954;49.500;10.416;2024-01-30T00:40:44;3.85;;;2.70;;
81523;SDS011;70954;49.500;10.416;2024-01-30T00:43:10;4.13;;;2.83;;
81523;SDS011;70954;49.500;10.416;2024-01-30T00:45:35;4.45;;;2.50;;
81523;SDS011;70954;49.500;10.416;2024-01-30T00:48:01;4.43;;;2.92;;
81523;SDS011;70954;49.500;10.416;2024-01-30T00:50:26;5.00;;;3.20;;
81523;SDS011;70954;49.500;10.416;2024-01-30T00:52:52;4.97;;;2.90;;
81523;SDS011;70954;49.500;10.416;2024-01-30T00:55:17;5.07;;;2.92;;
81523;SDS011;70954;49.500;10.416;2024-01-30T00:57:43;3.70;;;2.70;;
81523;SDS011;70954;49.500;10.416;2024-01-30T01:00:08;5.82;;;3.05;;
81523;SDS011;70954;49.500;10.416;2024-01-30T01:02:34;5.35;;;2.95;;
81523;SDS011;70954;49.500;10.416;2024-01-30T01:05:00;4.05;;;2.70;;
81523;SDS011;70954;49.500;10.416;2024-01-30T01:07:26;3.95;;;2.95;;
81523;SDS011;70954;49.500;10.416;2024-01-30T01:09:51;3.78;;;2.78;;
81523;SDS011;70954;49.500;10.416;2024-01-30T01:12:17;5.03;;;3.10;;
81523;SDS011;70954;49.500;10.416;2024-01-30T01:14:42;4.28;;;3.13;;
81523;SDS011;70954;49.500;10.416;2024-01-30T01:17:08;4.28;;;2.88;;
81523;SDS011;70954;49.500;10.416;2024-01-30T01:19:33;3.53;;;2.53;;
81523;SDS011;70954;49.500;10.416;2024-01-30T01:21:58;3.70;;;2.78;;
81523;SDS011;70954;49.500;10.416;2024-01-30T01:24:24;4.25;;;3.10;;
81523;SDS011;70954;49.500;10.416;2024-01-30T01:26:49;5.57;;;3.35;;
81523;SDS011;70954;49.500;10.416;2024-01-30T01:29:15;4.72;;;2.97;;
81523;SDS011;70954;49.500;10.416;2024-01-30T01:31:40;4.32;;;3.10;;
81523;SDS011;70954;49.500;10.416;2024-01-30T01:34:06;3.75;;;2.80;;
81523;SDS011;70954;49.500;10.416;2024-01-30T01:36:31;4.57;;;3.00;;
81523;SDS011;70954;49.500;10.416;2024-01-30T01:38:57;3.28;;;2.67;;
81523;SDS011;70954;49.500;10.416;2024-01-30T01:41:22;5.60;;;3.08;;
81523;SDS011;70954;49.500;10.416;2024-01-30T01:43:48;4.20;;;3.10;;
81523;SDS011;70954;49.500;10.416;2024-01-30T01:46:13;4.22;;;2.80;;
81523;SDS011;70954;49.500;10.416;2024-01-30T01:48:39;4.72;;;2.88;;
81523;SDS011;70954;49.500;10.416;2024-01-30T01:51:04;3.53;;;2.78;;
81523;SDS011;70954;49.500;10.416;2024-01-30T01:53:31;4.20;;;2.95;;
81523;SDS011;70954;49.500;10.416;2024-01-30T01:55:57;5.13;;;2.80;;
81523;SDS011;70954;49.500;10.416;2024-01-30T01:58:22;3.75;;;2.53;;
81523;SDS011;70954;49.500;10.416;2024-01-30T02:00:51;3.65;;;2.50;;
81523;SDS011;70954;49.500;10.416;2024-01-30T02:03:17;3.45;;;2.33;;
81523;SDS011;70954;49.500;10.416;2024-01-30T02:05:43;3.47;;;2.60;;
81523;SDS011;70954;49.500;10.416;2024-01-30T02:08:08;3.60;;;2.50;;
81523;SDS011;70954;49.500;10.416;2024-01-30T02:10:34;2.67;;;2.40;;
81523;SDS011;70954;49.500;10.416;2024-01-30T02:12:59;3.50;;;2.50;;
81523;SDS011;70954;49.500;10.416;2024-01-30T02:15:25;3.40;;;2.42;;
81523;SDS011;70954;49.500;10.416;2024-01-30T02:17:50;2.80;;;2.58;;
81523;SDS011;70954;49.500;10.416;2024-01-30T02:20:16;3.65;;;2.92;;
81523;SDS011;70954;49.500;10.416;2024-01-30T02:22:41;3.55;;;2.60;;
81523;SDS011;70954;49.500;10.416;2024-01-30T02:25:08;3.45;;;2.63;;
81523;SDS011;70954;49.500;10.416;2024-01-30T02:27:33;3.65;;;2.30;;
81523;SDS011;70954;49.500;10.416;2024-01-30T02:29:59;4.35;;;2.63;;
81523;SDS011;70954;49.500;10.416;2024-01-30T02:32:24;2.97;;;2.38;;
81523;SDS011;70954;49.500;10.416;2024-01-30T02:34:50;3.70;;;2.35;;
81523;SDS011;70954;49.500;10.416;2024-01-30T02:37:16;3.92;;;3.35;;
81523;SDS011;70954;49.500;10.416;2024-01-30T02:39:42;3.95;;;2.92;;
81523;SDS011;70954;49.500;10.416;2024-01-30T02:42:07;4.07;;;2.95;;
81523;SDS011;70954;49.500;10.416;2024-01-30T02:44:33;3.45;;;3.10;;
81523;SDS011;70954;49.500;10.416;2024-01-30T02:46:58;5.20;;;3.03;;
81523;SDS011;70954;49.500;10.416;2024-01-30T02:49:24;4.28;;;2.60;;
81523;SDS011;70954;49.500;10.416;2024-01-30T02:51:49;3.53;;;2.40;;
81523;SDS011;70954;49.500;10.416;2024-01-30T02:54:15;2.67;;;2.22;;
81523;SDS011;70954;49.500;10.416;2024-01-30T02:56:40;3.50;;;2.65;;
81523;SDS011;70954;49.500;10.416;2024-01-30T02:59:06;4.30;;;2.70;;
81523;SDS011;70954;49.500;10.416;2024-01-30T03:01:32;3.85;;;2.65;;
81523;SDS011;70954;49.500;10.416;2024-01-30T03:03:57;4.30;;;2.97;;
81523;SDS011;70954;49.500;10.416;2024-01-30T03:06:22;3.95;;;2.88;;
81523;SDS011;70954;49.500;10.416;2024-01-30T03:08:48;3.25;;;2.05;;
81523;SDS011;70954;49.500;10.416;2024-01-30T03:11:13;2.97;;;2.65;;
81523;SDS011;70954;49.500;10.416;2024-01-30T03:13:39;3.70;;;2.65;;
81523;SDS011;70954;49.500;10.416;2024-01-30T03:16:04;3.88;;;2.53;;
81523;SDS011;70954;49.500;10.416;2024-01-30T03:18:30;4.78;;;3.33;;
81523;SDS011;70954;49.500;10.416;2024-01-30T03:20:56;4.03;;;2.70;;
81523;SDS011;70954;49.500;10.416;2024-01-30T03:23:21;3.38;;;2.40;;
81523;SDS011;70954;49.500;10.416;2024-01-30T03:25:47;5.65;;;3.05;;
81523;SDS011;70954;49.500;10.416;2024-01-30T03:28:12;5.03;;;3.47;;
81523;SDS011;70954;49.500;10.416;2024-01-30T03:30:37;4.03;;;2.95;;
81523;SDS011;70954;49.500;10.416;2024-01-30T03:33:03;4.80;;;3.13;;
81523;SDS011;70954;49.500;10.416;2024-01-30T03:35:29;3.92;;;2.83;;
81523;SDS011;70954;49.500;10.416;2024-01-30T03:37:54;4.28;;;3.13;;
81523;SDS011;70954;49.500;10.416;2024-01-30T03:40:19;4.30;;;3.03;;
81523;SDS011;70954;49.500;10.416;2024-01-30T03:42:45;3.67;;;2.78;;
81523;SDS011;70954;49.500;10.416;2024-01-30T03:45:10;4.53;;;2.92;;
81523;SDS011;70954;49.500;10.416;2024-01-30T03:47:36;4.97;;;2.80;;
81523;SDS011;70954;49.500;10.416;2024-01-30T03:50:01;4.30;;;3.15;;
81523;SDS011;70954;49.500;10.416;2024-01-30T03:52:27;5.57;;;3.05;;
81523;SDS011;70954;49.500;10.416;2024-01-30T03:54:52;3.05;;;2.72;;
81523;SDS011;70954;49.500;10.416;2024-01-30T03:57:18;3.35;;;2.90;;
81523;SDS011;70954;49.500;10.416;2024-01-30T03:59:43;3.95;;;2.67;;
81523;SDS011;70954;49.500;10.416;2024-01-30T04:02:10;3.50;;;2.90;;
81523;SDS011;70954;49.500;10.416;2024-01-30T04:04:35;4.57;;;2.72;;
81523;SDS011;70954;49.500;10.416;2024-01-30T04:07:01;4.55;;;2.80;;
81523;SDS011;70954;49.500;10.416;2024-01-30T04:09:26;3.50;;;2.63;;
81523;SDS011;70954;49.500;10.416;2024-01-30T04:11:52;3.60;;;2.70;;
81523;SDS011;70954;49.500;10.416;2024-01-30T04:14:17;3.35;;;2.50;;
81523;SDS011;70954;49.500;10.416;2024-01-30T04:16:43;4.03;;;2.78;;
81523;SDS011;70954;49.500;10.416;2024-01-30T04:19:08;4.05;;;2.85;;
81523;SDS011;70954;49.500;10.416;2024-01-30T04:21:33;3.40;;;2.70;;
81523;SDS011;70954;49.500;10.416;2024-01-30T04:23:59;4.75;;;2.90;;
81523;SDS011;70954;49.500;10.416;2024-01-30T04:26:24;4.50;;;2.67;;
81523;SDS011;70954;49.500;10.416;2024-01-30T04:28:50;3.60;;;2.60;;
81523;SDS011;70954;49.500;10.416;2024-01-30T04:31:15;3.78;;;2.70;;
81523;SDS011;70954;49.500;10.416;2024-01-30T04:33:41;4.55;;;2.70;;
81523;SDS011;70954;49.500;10.416;2024-01-30T04:36:08;4.28;;;2.72;;
81523;SDS011;70954;49.500;10.416;2024-01-30T04:38:34;5.22;;;3.22;;
81523;SDS011;70954;49.500;10.416;2024-01-30T04:40:59;5.15;;;3.25;;
81523;SDS011;70954;49.500;10.416;2024-01-30T04:43:24;4.57;;;2.65;;
81523;SDS011;70954;49.500;10.416;2024-01-30T04:45:50;5.03;;;3.50;;
81523;SDS011;70954;49.500;10.416;2024-01-30T04:48:15;4.25;;;3.10;;
81523;SDS011;70954;49.500;10.416;2024-01-30T04:50:41;4.32;;;2.92;;
81523;SDS011;70954;49.500;10.416;2024-01-30T04:53:06;4.20;;;3.00;;
81523;SDS011;70954;49.500;10.416;2024-01-30T04:55:32;4.40;;;3.10;;
81523;SDS011;70954;49.500;10.416;2024-01-30T04:57:57;4.22;;;3.05;;
81523;SDS011;70954;49.500;10.416;2024-01-30T05:00:23;4.22;;;2.78;;
81523;SDS011;70954;49.500;10.416;2024-01-30T05:02:48;3.78;;;2.50;;
81523;SDS011;70954;49.500;10.416;2024-01-30T05:05:14;3.70;;;2.58;;
81523;SDS011;70954;49.500;10.416;2024-01-30T05:07:41;3.70;;;2.65;;
81523;SDS011;70954;49.500;10.416;2024-01-30T05:10:06;3.97;;;2.67;;
81523;SDS011;70954;49.500;10.416;2024-01-30T05:12:32;4.32;;;3.10;;
81523;SDS011;70954;49.500;10.416;2024-01-30T05:14:57;4.20;;;2.95;;
81523;SDS011;70954;49.500;10.416;2024-01-30T05:17:23;4.20;;;2.50;;
81523;SDS011;70954;49.500;10.416;2024-01-30T05:19:48;4.32;;;3.05;;
81523;SDS011;70954;49.500;10.416;2024-01-30T05:22:13;4.85;;;3.00;;
81523;SDS011;70954;49.500;10.416;2024-01-30T05:24:39;4.72;;;2.92;;
81523;SDS011;70954;49.500;10.416;2024-01-30T05:27:04;4.72;;;2.90;;
81523;SDS011;70954;49.500;10.416;2024-01-30T05:29:30;4.28;;;3.05;;
81523;SDS011;70954;49.500;10.416;2024-01-30T05:31:55;4.32;;;3.20;;
81523;SDS011;70954;49.500;10.416;2024-01-30T05:34:21;4.90;;;2.90;;
81523;SDS011;70954;49.500;10.416;2024-01-30T05:36:46;4.65;;;2.88;;
81523;SDS011;70954;49.500;10.416;2024-01-30T05:39:11;3.95;;;3.20;;
81523;SDS011;70954;49.500;10.416;2024-01-30T05:41:37;3.97;;;2.72;;
81523;SDS011;70954;49.500;10.416;2024-01-30T05:44:02;4.32;;;3.00;;
81523;SDS011;70954;49.500;10.416;2024-01-30T05:46:28;4.15;;;2.83;;
81523;SDS011;70954;49.500;10.416;2024-01-30T05:48:53;4.80;;;2.63;;
81523;SDS011;70954;49.500;10.416;2024-01-30T05:51:19;4.90;;;2.83;;
81523;SDS011;70954;49.500;10.416;2024-01-30T05:53:44;3.78;;;2.50;;
81523;SDS011;70954;49.500;10.416;2024-01-30T05:56:10;4.10;;;3.13;;
81523;SDS011;70954;49.500;10.416;2024-01-30T05:58:35;4.53;;;3.05;;
81523;SDS011;70954;49.500;10.416;2024-01-30T06:01:00;3.95;;;3.15;;
81523;SDS011;70954;49.500;10.416;2024-01-30T06:03:26;3.88;;;2.97;;
81523;SDS011;70954;49.500;10.416;2024-01-30T06:05:51;5.25;;;3.75;;
81523;SDS011;70954;49.500;10.416;2024-01-30T06:08:17;4.80;;;3.63;;
81523;SDS011;70954;49.500;10.416;2024-01-30T06:10:43;4.50;;;2.88;;
81523;SDS011;70954;49.500;10.416;2024-01-30T06:13:08;4.00;;;3.20;;
81523;SDS011;70954;49.500;10.416;2024-01-30T06:15:33;4.28;;;3.03;;
81523;SDS011;70954;49.500;10.416;2024-01-30T06:17:59;3.67;;;2.90;;
81523;SDS011;70954;49.500;10.416;2024-01-30T06:20:24;4.68;;;3.72;;
81523;SDS011;70954;49.500;10.416;2024-01-30T06:22:50;3.33;;;2.60;;
81523;SDS011;70954;49.500;10.416;2024-01-30T06:25:15;4.22;;;3.58;;
81523;SDS011;70954;49.500;10.416;2024-01-30T06:27:41;5.00;;;3.10;;
81523;SDS011;70954;49.500;10.416;2024-01-30T06:30:06;5.47;;;3.58;;
81523;SDS011;70954;49.500;10.416;2024-01-30T06:32:32;4.03;;;3.25;;
81523;SDS011;70954;49.500;10.416;2024-01-30T06:34:57;5.13;;;3.35;;
81523;SDS011;70954;49.500;10.416;2024-01-30T06:37:23;4.32;;;3.38;;
81523;SDS011;70954;49.500;10.416;2024-01-30T06:39:48;5.55;;;3.30;;
81523;SDS011;70954;49.500;10.416;2024-01-30T06:42:14;3.63;;;3.15;;
81523;SDS011;70954;49.500;10.416;2024-01-30T06:44:39;5.55;;;3.45;;
81523;SDS011;70954;49.500;10.416;2024-01-30T06:47:04;6.03;;;3.45;;
81523;SDS011;70954;49.500;10.416;2024-01-30T06:49:30;5.35;;;3.50;;
81523;SDS011;70954;49.500;10.416;2024-01-30T06:51:55;4.80;;;3.30;;
81523;SDS011;70954;49.500;10.416;2024-01-30T06:54:21;3.17;;;2.50;;
81523;SDS011;70954;49.500;10.416;2024-01-30T06:56:46;7.53;;;3.53;;
81523;SDS011;70954;49.500;10.416;2024-01-30T06:59:12;5.15;;;3.47;;
81523;SDS011;70954;49.500;10.416;2024-01-30T07:01:37;4.78;;;3.30;;
81523;SDS011;70954;49.500;10.416;2024-01-30T07:04:03;5.32;;;3.38;;
81523;SDS011;70954;49.500;10.416;2024-01-30T07:06:28;6.68;;;4.10;;
81523;SDS011;70954;49.500;10.416;2024-01-30T07:08:54;6.53;;;3.65;;
81523;SDS011;70954;49.500;10.416;2024-01-30T07:11:19;7.78;;;4.07;;
81523;SDS011;70954;49.500;10.416;2024-01-30T07:13:46;8.70;;;4.70;;
81523;SDS011;70954;49.500;10.416;2024-01-30T07:16:11;7.43;;;5.07;;
81523;SDS011;70954;49.500;10.416;2024-01-30T07:18:37;6.38;;;4.32;;
81523;SDS011;70954;49.500;10.416;2024-01-30T07:21:02;6.15;;;4.53;;
81523;SDS011;70954;49.500;10.416;2024-01-30T07:23:28;7.90;;;3.88;;
81523;SDS011;70954;49.500;10.416;2024-01-30T07:25:53;5.97;;;4.22;;
81523;SDS011;70954;49.500;10.416;2024-01-30T07:28:19;7.03;;;3.85;;
81523;SDS011;70954;49.500;10.416;2024-01-30T07:30:44;5.68;;;3.90;;
81523;SDS011;70954;49.500;10.416;2024-01-30T07:33:10;4.60;;;3.03;;
81523;SDS011;70954;49.500;10.416;2024-01-30T07:35:35;5.13;;;3.60;;
81523;SDS011;70954;49.500;10.416;2024-01-30T07:38:01;3.90;;;3.15;;
81523;SDS011;70954;49.500;10.416;2024-01-30T07:40:27;4.28;;;3.35;;
81523;SDS011;70954;49.500;10.416;2024-01-30T07:42:55;5.13;;;3.50;;
81523;SDS011;70954;49.500;10.416;2024-01-30T07:45:21;5.07;;;3.38;;
81523;SDS011;70954;49.500;10.416;2024-01-30T07:47:46;3.58;;;2.67;;
81523;SDS011;70954;49.500;10.416;2024-01-30T07:50:11;3.40;;;2.70;;
81523;SDS011;70954;49.500;10.416;2024-01-30T07:52:37;5.32;;;3.47;;
81523;SDS011;70954;49.500;10.416;2024-01-30T07:55:02;3.45;;;2.50;;
81523;SDS011;70954;49.500;10.416;2024-01-30T07:57:28;2.80;;;2.30;;
81523;SDS011;70954;49.500;10.416;2024-01-30T07:59:53;3.67;;;2.85;;
81523;SDS011;70954;49.500;10.416;2024-01-30T08:02:22;4.47;;;3.30;;
81523;SDS011;70954;49.500;10.416;2024-01-30T08:04:47;4.38;;;2.92;;
81523;SDS011;70954;49.500;10.416;2024-01-30T08:07:13;5.70;;;3.03;;
81523;SDS011;70954;49.500;10.416;2024-01-30T08:09:38;4.10;;;3.13;;
81523;SDS011;70954;49.500;10.416;2024-01-30T08:12:04;4.00;;;2.92;;
81523;SDS011;70954;49.500;10.416;2024-01-30T08:14:30;3.78;;;3.00;;
81523;SDS011;70954;49.500;10.416;2024-01-30T08:16:55;3.90;;;2.95;;
81523;SDS011;70954;49.500;10.416;2024-01-30T08:19:20;3.63;;;2.72;;
81523;SDS011;70954;49.500;10.416;2024-01-30T08:21:46;5.32;;;3.58;;
81523;SDS011;70954;49.500;10.416;2024-01-30T08:24:11;3.30;;;2.65;;
81523;SDS011;70954;49.500;10.416;2024-01-30T08:26:37;5.30;;;3.58;;
81523;SDS011;70954;49.500;10.416;2024-01-30T08:29:02;5.32;;;3.67;;
81523;SDS011;70954;49.500;10.416;2024-01-30T08:31:28;5.25;;;3.55;;
81523;SDS011;70954;49.500;10.416;2024-01-30T08:33:53;4.43;;;3.22;;
81523;SDS011;70954;49.500;10.416;2024-01-30T08:36:19;5.50;;;4.03;;
81523;SDS011;70954;49.500;10.416;2024-01-30T08:38:45;5.38;;;4.20;;
81523;SDS011;70954;49.500;10.416;2024-01-30T08:41:11;5.13;;;3.50;;
81523;SDS011;70954;49.500;10.416;2024-01-30T08:43:36;4.93;;;3.22;;
81523;SDS011;70954;49.500;10.416;2024-01-30T08:46:02;4.30;;;2.70;;
81523;SDS011;70954;49.500;10.416;2024-01-30T08:48:28;3.92;;;2.90;;
81523;SDS011;70954;49.500;10.416;2024-01-30T08:50:53;4.18;;;3.03;;
81523;SDS011;70954;49.500;10.416;2024-01-30T08:53:19;5.40;;;3.35;;
81523;SDS011;70954;49.500;10.416;2024-01-30T08:55:44;4.50;;;3.33;;
81523;SDS011;70954;49.500;10.416;2024-01-30T08:58:10;4.07;;;3.08;;
81523;SDS011;70954;49.500;10.416;2024-01-30T09:00:36;3.53;;;2.80;;
81523;SDS011;70954;49.500;10.416;2024-01-30T09:03:02;5.15;;;3.50;;
81523;SDS011;70954;49.500;10.416;2024-01-30T09:05:28;3.22;;;2.33;;
81523;SDS011;70954;49.500;10.416;2024-01-30T09:07:53;4.93;;;2.72;;
81523;SDS011;70954;49.500;10.416;2024-01-30T09:10:19;3.05;;;2.75;;
81523;SDS011;70954;49.500;10.416;2024-01-30T09:12:44;2.78;;;2.47;;
81523;SDS011;70954;49.500;10.416;2024-01-30T09:15:10;3.70;;;3.28;;
81523;SDS011;70954;49.500;10.416;2024-01-30T09:17:35;5.18;;;2.97;;
81523;SDS011;70954;49.500;10.416;2024-01-30T09:20:01;4.10;;;3.20;;
81523;SDS011;70954;49.500;10.416;2024-01-30T09:22:26;4.63;;;2.95;;
81523;SDS011;70954;49.500;10.416;2024-01-30T09:24:52;4.93;;;3.65;;
81523;SDS011;70954;49.500;10.416;2024-01-30T09:27:17;4.55;;;3.63;;
81523;SDS011;70954;49.500;10.416;2024-01-30T09:29:42;5.68;;;3.50;;
81523;SDS011;70954;49.500;10.416;2024-01-30T09:32:08;4.40;;;3.60;;
81523;SDS011;70954;49.500;10.416;2024-01-30T09:34:33;5.22;;;3.47;;
81523;SDS011;70954;49.500;10.416;2024-01-30T09:36:59;4.53;;;3.13;;
81523;SDS011;70954;49.500;10.416;2024-01-30T09:39:24;6.10;;;4.13;;
81523;SDS011;70954;49.500;10.416;2024-01-30T09:41:56;5.78;;;3.85;;
81523;SDS011;70954;49.500;10.416;2024-01-30T09:44:30;4.38;;;3.22;;
81523;SDS011;70954;49.500;10.416;2024-01-30T09:46:55;4.40;;;2.97;;
81523;SDS011;70954;49.500;10.416;2024-01-30T09:49:21;5.78;;;3.95;;
81523;SDS011;70954;49.500;10.416;2024-01-30T09:51:47;5.07;;;3.30;;
81523;SDS011;70954;49.500;10.416;2024-01-30T09:54:14;5.82;;;4.18;;
81523;SDS011;70954;49.500;10.416;2024-01-30T09:56:40;6.15;;;4.05;;
81523;SDS011;70954;49.500;10.416;2024-01-30T09:59:06;6.15;;;4.25;;
81523;SDS011;70954;49.500;10.416;2024-01-30T10:01:31;5.82;;;4.03;;
81523;SDS011;70954;49.500;10.416;2024-01-30T10:03:59;7.10;;;4.45;;
81523;SDS011;70954;49.500;10.416;2024-01-30T10:06:24;4.80;;;3.97;;
81523;SDS011;70954;49.500;10.416;2024-01-30T10:08:50;5.97;;;4.10;;
81523;SDS011;70954;49.500;10.416;2024-01-30T10:11:15;6.50;;;3.92;;
81523;SDS011;70954;49.500;10.416;2024-01-30T10:13:41;6.32;;;3.97;;
81523;SDS011;70954;49.500;10.416;2024-01-30T10:16:06;5.18;;;3.88;;
81523;SDS011;70954;49.500;10.416;2024-01-30T10:18:32;6.18;;;4.55;;
81523;SDS011;70954;49.500;10.416;2024-01-30T10:20:58;7.32;;;4.07;;
81523;SDS011;70954;49.500;10.416;2024-01-30T10:23:24;8.02;;;5.00;;
81523;SDS011;70954;49.500;10.416;2024-01-30T10:25:51;7.40;;;4.82;;
81523;SDS011;70954;49.500;10.416;2024-01-30T10:28:16;6.15;;;3.90;;
81523;SDS011;70954;49.500;10.416;2024-01-30T10:30:42;7.32;;;4.80;;
81523;SDS011;70954;49.500;10.416;2024-01-30T10:33:08;7.07;;;4.80;;
81523;SDS011;70954;49.500;10.416;2024-01-30T10:35:33;4.82;;;3.60;;
81523;SDS011;70954;49.500;10.416;2024-01-30T10:37:59;4.90;;;3.63;;
81523;SDS011;70954;49.500;10.416;2024-01-30T10:40:26;4.80;;;3.20;;
81523;SDS011;70954;49.500;10.416;2024-01-30T10:42:53;3.95;;;3.13;;
81523;SDS011;70954;49.500;10.416;2024-01-30T10:45:20;5.10;;;3.70;;
81523;SDS011;70954;49.500;10.416;2024-01-30T10:47:50;6.25;;;4.05;;
81523;SDS011;70954;49.500;10.416;2024-01-30T10:50:19;5.00;;;3.40;;
81523;SDS011;70954;49.500;10.416;2024-01-30T10:52:45;4.82;;;3.45;;
81523;SDS011;70954;49.500;10.416;2024-01-30T10:55:12;4.65;;;3.50;;
81523;SDS011;70954;49.500;10.416;2024-01-30T10:57:40;7.15;;;3.42;;
81523;SDS011;70954;49.500;10.416;2024-01-30T11:00:10;5.00;;;3.60;;
81523;SDS011;70954;49.500;10.416;2024-01-30T11:02:40;6.15;;;3.25;;
81523;SDS011;70954;49.500;10.416;2024-01-30T11:05:07;4.57;;;3.10;;
81523;SDS011;70954;49.500;10.416;2024-01-30T11:07:33;4.20;;;3.38;;
81523;SDS011;70954;49.500;10.416;2024-01-30T11:12:24;4.57;;;3.38;;
81523;SDS011;70954;49.500;10.416;2024-01-30T11:15:01;4.60;;;2.97;;
81523;SDS011;70954;49.500;10.416;2024-01-30T11:20:19;7.07;;;4.13;;
81523;SDS011;70954;49.500;10.416;2024-01-30T11:22:46;4.32;;;3.40;;
81523;SDS011;70954;49.500;10.416;2024-01-30T11:25:17;5.10;;;2.92;;
81523;SDS011;70954;49.500;10.416;2024-01-30T11:27:44;4.07;;;3.10;;
81523;SDS011;70954;49.500;10.416;2024-01-30T11:30:20;4.82;;;2.90;;
81523;SDS011;70954;49.500;10.416;2024-01-30T11:32:57;4.75;;;2.97;;
81523;SDS011;70954;49.500;10.416;2024-01-30T11:35:26;4.05;;;3.30;;
81523;SDS011;70954;49.500;10.416;2024-01-30T11:37:52;3.83;;;3.17;;
81523;SDS011;70954;49.500;10.416;2024-01-30T11:40:19;4.35;;;3.03;;
81523;SDS011;70954;49.500;10.416;2024-01-30T11:42:44;5.85;;;3.67;;
81523;SDS011;70954;49.500;10.416;2024-01-30T11:45:12;5.60;;;3.30;;
81523;SDS011;70954;49.500;10.416;2024-01-30T11:47:37;6.93;;;3.75;;
81523;SDS011;70954;49.500;10.416;2024-01-30T11:50:04;6.53;;;3.72;;
81523;SDS011;70954;49.500;10.416;2024-01-30T11:52:29;4.80;;;3.15;;
81523;SDS011;70954;49.500;10.416;2024-01-30T11:54:55;4.80;;;3.63;;
81523;SDS011;70954;49.500;10.416;2024-01-30T11:57:20;6.38;;;4.05;;
81523;SDS011;70954;49.500;10.416;2024-01-30T11:59:46;5.20;;;3.60;;
81523;SDS011;70954;49.500;10.416;2024-01-30T12:02:15;4.63;;;3.28;;
81523;SDS011;70954;49.500;10.416;2024-01-30T12:07:06;3.75;;;2.85;;
81523;SDS011;70954;49.500;10.416;2024-01-30T12:09:31;5.38;;;3.63;;
81523;SDS011;70954;49.500;10.416;2024-01-30T12:11:57;5.47;;;3.85;;
81523;SDS011;70954;49.500;10.416;2024-01-30T12:14:22;6.25;;;3.97;;
81523;SDS011;70954;49.500;10.416;2024-01-30T12:16:48;7.32;;;4.53;;
81523;SDS011;70954;49.500;10.416;2024-01-30T12:19:21;7.07;;;5.05;;
81523;SDS011;70954;49.500;10.416;2024-01-30T12:21:59;7.63;;;4.65;;
81523;SDS011;70954;49.500;10.416;2024-01-30T12:24:25;7.43;;;4.50;;
81523;SDS011;70954;49.500;10.416;2024-01-30T12:26:51;6.57;;;4.68;;
81523;SDS011;70954;49.500;10.416;2024-01-30T12:29:16;7.75;;;5.03;;
81523;SDS011;70954;49.500;10.416;2024-01-30T12:31:42;6.40;;;4.22;;
81523;SDS011;70954;49.500;10.416;2024-01-30T12:34:08;7.47;;;4.72;;
81523;SDS011;70954;49.500;10.416;2024-01-30T12:36:33;6.60;;;4.20;;
81523;SDS011;70954;49.500;10.416;2024-01-30T12:38:59;7.50;;;4.95;;
81523;SDS011;70954;49.500;10.416;2024-01-30T12:41:25;6.47;;;3.80;;
81523;SDS011;70954;49.500;10.416;2024-01-30T12:43:51;5.82;;;4.70;;
81523;SDS011;70954;49.500;10.416;2024-01-30T12:46:17;5.93;;;4.03;;
81523;SDS011;70954;49.500;10.416;2024-01-30T12:48:42;6.20;;;3.85;;
81523;SDS011;70954;49.500;10.416;2024-01-30T12:51:08;5.85;;;3.95;;
81523;SDS011;70954;49.500;10.416;2024-01-30T12:53:33;6.22;;;4.35;;
81523;SDS011;70954;49.500;10.416;2024-01-30T12:55:59;5.53;;;3.70;;
81523;SDS011;70954;49.500;10.416;2024-01-30T12:58:24;5.38;;;4.00;;
81523;SDS011;70954;49.500;10.416;2024-01-30T13:00:50;6.13;;;3.55;;
81523;SDS011;70954;49.500;10.416;2024-01-30T13:03:15;5.15;;;3.97;;
81523;SDS011;70954;49.500;10.416;2024-01-30T13:05:41;5.38;;;3.80;;
81523;SDS011;70954;49.500;10.416;2024-01-30T13:08:07;6.03;;;3.67;;
81523;SDS011;70954;49.500;10.416;2024-01-30T13:10:32;6.32;;;4.32;;
81523;SDS011;70954;49.500;10.416;2024-01-30T13:12:58;6.95;;;5.03;;
81523;SDS011;70954;49.500;10.416;2024-01-30T13:15:23;8.43;;;5.60;;
81523;SDS011;70954;49.500;10.416;2024-01-30T13:17:49;10.73;;;5.82;;
81523;SDS011;70954;49.500;10.416;2024-01-30T13:20:15;7.18;;;4.72;;
81523;SDS011;70954;49.500;10.416;2024-01-30T13:22:40;5.75;;;4.25;;
81523;SDS011;70954;49.500;10.416;2024-01-30T13:25:06;5.78;;;4.65;;
81523;SDS011;70954;49.500;10.416;2024-01-30T13:27:31;5.53;;;4.45;;
81523;SDS011;70954;49.500;10.416;2024-01-30T13:29:57;4.93;;;3.88;;
81523;SDS011;70954;49.500;10.416;2024-01-30T13:32:22;6.35;;;3.88;;
81523;SDS011;70954;49.500;10.416;2024-01-30T13:34:49;5.57;;;4.05;;
81523;SDS011;70954;49.500;10.416;2024-01-30T13:37:14;6.90;;;4.18;;
81523;SDS011;70954;49.500;10.416;2024-01-30T13:39:40;5.90;;;3.95;;
81523;SDS011;70954;49.500;10.416;2024-01-30T13:42:05;6.60;;;4.15;;
81523;SDS011;70954;49.500;10.416;2024-01-30T13:44:31;6.07;;;4.30;;
81523;SDS011;70954;49.500;10.416;2024-01-30T13:46:56;5.82;;;4.38;;
81523;SDS011;70954;49.500;10.416;2024-01-30T13:49:21;4.57;;;3.72;;
81523;SDS011;70954;49.500;10.416;2024-01-30T13:51:47;6.13;;;3.78;;
81523;SDS011;70954;49.500;10.416;2024-01-30T13:54:12;5.20;;;3.85;;
81523;SDS011;70954;49.500;10.416;2024-01-30T13:56:38;6.63;;;4.28;;
81523;SDS011;70954;49.500;10.416;2024-01-30T13:59:03;6.32;;;4.18;;
81523;SDS011;70954;49.500;10.416;2024-01-30T14:01:29;5.45;;;3.85;;
81523;SDS011;70954;49.500;10.416;2024-01-30T14:03:54;5.43;;;3.35;;
81523;SDS011;70954;49.500;10.416;2024-01-30T14:06:20;4.63;;;3.50;;
81523;SDS011;70954;49.500;10.416;2024-01-30T14:08:45;6.28;;;3.70;;
81523;SDS011;70954;49.500;10.416;2024-01-30T14:11:11;4.18;;;3.38;;
81523;SDS011;70954;49.500;10.416;2024-01-30T14:13:36;4.32;;;3.13;;
81523;SDS011;70954;49.500;10.416;2024-01-30T14:16:01;5.00;;;3.33;;
81523;SDS011;70954;49.500;10.416;2024-01-30T14:18:27;5.40;;;3.50;;
81523;SDS011;70954;49.500;10.416;2024-01-30T14:20:53;5.38;;;3.10;;
81523;SDS011;70954;49.500;10.416;2024-01-30T14:23:18;3.90;;;3.10;;
81523;SDS011;70954;49.500;10.416;2024-01-30T14:25:43;4.50;;;3.35;;
81523;SDS011;70954;49.500;10.416;2024-01-30T14:28:09;5.30;;;3.42;;
81523;SDS011;70954;49.500;10.416;2024-01-30T14:30:34;6.47;;;4.03;;
81523;SDS011;70954;49.500;10.416;2024-01-30T14:33:00;6.18;;;3.40;;